2022/06/28 09:20 EDDW 280920Z AUTO 23009KT 9999 SCT031 SCT040 20/12 Q1021 NOSIG